createdAt,value
2018-12-10T00:00:19.905Z,9.68
2018-12-10T00:02:53.938Z,9.33
2018-12-10T00:05:22.034Z,9.20
2018-12-10T00:07:50.279Z,10.37
2018-12-10T00:10:18.402Z,9.70
2018-12-10T00:12:46.578Z,8.30
2018-12-10T00:15:14.678Z,7.83
2018-12-10T00:17:42.974Z,7.07
2018-12-10T00:20:11.163Z,7.25
2018-12-10T00:22:39.265Z,5.50
2018-12-10T00:25:07.469Z,9.45
2018-12-10T00:27:35.618Z,8.23
2018-12-10T00:30:04.380Z,7.05
2018-12-10T00:32:32.600Z,6.13
2018-12-10T00:35:00.725Z,7.05
2018-12-10T00:37:28.901Z,5.67
2018-12-10T00:39:57.202Z,7.45
2018-12-10T00:42:25.516Z,8.05
2018-12-10T00:44:54.027Z,6.97
2018-12-10T00:47:22.226Z,6.03
2018-12-10T00:49:50.621Z,6.53
2018-12-10T00:52:18.797Z,8.30
2018-12-10T00:54:46.917Z,8.03
2018-12-10T00:57:15.015Z,7.45
2018-12-10T00:59:43.470Z,9.20
2018-12-10T01:02:11.646Z,8.35
2018-12-10T01:04:39.798Z,8.35
2018-12-10T01:07:08.077Z,8.55
2018-12-10T01:09:36.357Z,10.00
2018-12-10T01:12:04.461Z,8.88
2018-12-10T01:14:32.718Z,6.95
2018-12-10T01:17:00.930Z,10.32
2018-12-10T01:19:29.017Z,8.50
2018-12-10T01:21:57.274Z,7.65
2018-12-10T01:24:25.513Z,8.90
2018-12-10T01:26:53.677Z,7.90
2018-12-10T01:29:21.869Z,8.55
2018-12-10T01:31:50.047Z,9.78
2018-12-10T01:34:18.210Z,11.57
2018-12-10T01:36:46.434Z,11.93
2018-12-10T01:39:14.608Z,8.38
2018-12-10T01:41:43.386Z,13.60
2018-12-10T01:44:11.763Z,6.97
2018-12-10T01:46:39.934Z,6.00
2018-12-10T01:49:08.178Z,6.17
2018-12-10T01:51:36.427Z,9.58
2018-12-10T01:54:04.523Z,6.47
2018-12-10T01:56:32.677Z,8.48
2018-12-10T01:59:01.019Z,11.38
2018-12-10T02:01:29.183Z,9.50
2018-12-10T02:03:57.525Z,12.65
2018-12-10T02:06:25.705Z,9.93
2018-12-10T02:08:53.918Z,8.05
2018-12-10T02:11:22.070Z,9.80
2018-12-10T02:13:50.287Z,9.28
2018-12-10T02:16:18.460Z,8.93
2018-12-10T02:18:46.733Z,11.67
2018-12-10T02:21:14.810Z,8.28
2018-12-10T02:23:42.914Z,11.10
2018-12-10T02:26:11.157Z,10.25
2018-12-10T02:28:44.831Z,8.58
2018-12-10T02:31:12.935Z,9.10
2018-12-10T02:33:41.123Z,7.70
2018-12-10T02:36:09.288Z,8.08
2018-12-10T02:38:37.481Z,10.70
2018-12-10T02:41:05.727Z,9.00
2018-12-10T02:43:34.028Z,9.03
2018-12-10T02:46:02.264Z,7.22
2018-12-10T02:48:30.512Z,7.50
2018-12-10T02:50:58.595Z,8.90
2018-12-10T02:53:27.057Z,10.80
2018-12-10T02:55:55.484Z,7.28
2018-12-10T02:58:23.654Z,9.75
2018-12-10T03:00:51.752Z,7.10
2018-12-10T03:03:20.167Z,9.38
2018-12-10T03:05:48.562Z,9.58
2018-12-10T03:08:16.664Z,10.80
2018-12-10T03:10:45.010Z,7.60
2018-12-10T03:13:13.259Z,8.13
2018-12-10T03:15:41.519Z,6.78
2018-12-10T03:18:09.695Z,11.33
2018-12-10T03:20:38.023Z,7.58
2018-12-10T03:23:06.298Z,7.90
2018-12-10T03:25:34.526Z,8.73
2018-12-10T03:28:02.690Z,10.15
2018-12-10T03:30:31.173Z,10.03
2018-12-10T03:32:59.365Z,11.93
2018-12-10T03:35:27.607Z,10.08
2018-12-10T03:37:55.910Z,10.05
2018-12-10T03:40:24.184Z,11.63
2018-12-10T03:42:52.347Z,11.65
2018-12-10T03:45:20.434Z,9.15
2018-12-10T03:47:48.716Z,8.80
2018-12-10T03:50:16.876Z,12.37
2018-12-10T03:52:45.359Z,11.53
2018-12-10T03:55:13.754Z,10.72
2018-12-10T03:57:41.888Z,8.83
2018-12-10T04:00:10.164Z,13.53
2018-12-10T04:02:38.906Z,12.23
2018-12-10T04:05:07.275Z,12.58
2018-12-10T04:07:35.570Z,12.33
2018-12-10T04:10:04.003Z,11.38
2018-12-10T04:12:32.264Z,11.48
2018-12-10T04:15:00.542Z,12.55
2018-12-10T04:17:28.718Z,15.03
2018-12-10T04:19:56.934Z,13.13
2018-12-10T04:22:25.028Z,11.48
2018-12-10T04:24:53.220Z,13.85
2018-12-10T04:27:22.504Z,11.68
2018-12-10T04:29:50.873Z,13.58
2018-12-10T04:32:19.051Z,13.80
2018-12-10T04:34:47.226Z,13.27
2018-12-10T04:37:15.467Z,15.75
2018-12-10T04:39:43.658Z,15.28
2018-12-10T04:42:11.913Z,15.23
2018-12-10T04:44:39.988Z,12.73
2018-12-10T04:47:08.122Z,11.35
2018-12-10T04:49:36.283Z,14.28
2018-12-10T04:52:04.370Z,11.50
2018-12-10T04:54:32.538Z,14.05
2018-12-10T04:57:01.794Z,14.20
2018-12-10T04:59:30.051Z,17.45
2018-12-10T05:01:58.239Z,12.55
2018-12-10T05:04:26.347Z,12.15
2018-12-10T05:06:54.510Z,14.95
2018-12-10T05:09:22.700Z,13.98
2018-12-10T05:11:50.854Z,14.30
2018-12-10T05:14:19.055Z,15.85
2018-12-10T05:16:47.171Z,16.07
2018-12-10T05:19:15.278Z,17.35
2018-12-10T05:21:43.496Z,12.50
2018-12-10T05:24:11.695Z,13.48
2018-12-10T05:26:39.899Z,12.80
2018-12-10T05:29:08.129Z,14.13
2018-12-10T05:31:36.378Z,13.28
2018-12-10T05:34:04.535Z,13.22
2018-12-10T05:36:32.648Z,12.90
2018-12-10T05:39:00.959Z,13.18
2018-12-10T05:41:29.059Z,11.47
2018-12-10T05:43:59.758Z,11.40
2018-12-10T05:46:28.623Z,12.03
2018-12-10T05:48:56.811Z,11.68
2018-12-10T05:51:25.074Z,9.88
2018-12-10T05:53:53.327Z,10.70
2018-12-10T05:56:21.492Z,9.40
2018-12-10T05:58:49.671Z,9.15
2018-12-10T06:01:17.923Z,11.55
2018-12-10T06:03:46.093Z,9.40
2018-12-10T06:06:15.195Z,10.00
2018-12-10T06:08:43.456Z,7.25
2018-12-10T06:11:11.543Z,8.15
2018-12-10T06:13:40.849Z,5.95
2018-12-10T06:16:09.120Z,10.53
2018-12-10T06:18:37.177Z,6.75
2018-12-10T06:21:05.393Z,7.20
2018-12-10T06:23:33.492Z,8.40
2018-12-10T06:26:01.580Z,8.98
2018-12-10T06:28:29.743Z,6.85
2018-12-10T06:30:58.011Z,8.93
2018-12-10T06:33:26.269Z,5.80
2018-12-10T06:35:54.444Z,5.90
2018-12-10T06:38:22.628Z,8.60
2018-12-10T06:40:50.798Z,6.03
2018-12-10T06:43:18.897Z,7.47
2018-12-10T06:45:47.106Z,7.65
2018-12-10T06:48:15.250Z,7.75
2018-12-10T06:50:43.667Z,6.47
2018-12-10T06:53:11.825Z,9.03
2018-12-10T06:55:40.067Z,8.38
2018-12-10T06:58:08.264Z,12.65
2018-12-10T07:00:36.443Z,7.90
2018-12-10T07:03:04.550Z,8.93
2018-12-10T07:05:32.983Z,8.58
2018-12-10T07:08:01.166Z,9.40
2018-12-10T07:10:29.392Z,10.15
2018-12-10T07:12:57.758Z,11.00
2018-12-10T07:15:25.911Z,10.43
2018-12-10T07:17:54.275Z,10.65
2018-12-10T07:20:22.501Z,9.25
2018-12-10T07:22:50.651Z,8.70
2018-12-10T07:25:18.768Z,8.88
2018-12-10T07:27:46.982Z,7.08
2018-12-10T07:30:15.163Z,8.60
2018-12-10T07:32:43.347Z,6.00
2018-12-10T07:35:11.440Z,8.75
2018-12-10T07:37:39.610Z,8.05
2018-12-10T07:40:07.855Z,8.10
2018-12-10T07:42:36.055Z,6.97
2018-12-10T07:45:04.700Z,8.50
2018-12-10T07:47:33.032Z,6.97
2018-12-10T07:50:01.119Z,8.10
2018-12-10T07:52:29.231Z,5.62
2018-12-10T07:54:57.433Z,6.72
2018-12-10T07:57:25.696Z,5.97
2018-12-10T07:59:53.871Z,7.62
2018-12-10T08:02:22.222Z,5.05
2018-12-10T08:04:50.341Z,5.67
2018-12-10T08:07:18.515Z,5.35
2018-12-10T08:09:46.655Z,5.55
2018-12-10T08:12:15.395Z,5.35
2018-12-10T08:14:43.678Z,6.70
2018-12-10T08:17:11.854Z,4.67
2018-12-10T08:19:41.602Z,5.37
2018-12-10T08:22:10.013Z,5.80
2018-12-10T08:24:38.115Z,6.05
2018-12-10T08:27:09.627Z,6.42
2018-12-10T08:29:36.368Z,9.17
2018-12-10T08:32:04.655Z,5.97
2018-12-10T08:34:41.241Z,6.53
2018-12-10T08:37:03.056Z,7.13
2018-12-10T08:39:31.224Z,6.62
2018-12-10T08:41:59.518Z,5.55
2018-12-10T08:44:27.617Z,7.42
2018-12-10T08:46:55.699Z,6.30
2018-12-10T08:49:24.046Z,6.60
2018-12-10T08:51:52.199Z,5.92
2018-12-10T08:54:20.492Z,6.35
2018-12-10T08:56:48.743Z,5.20
2018-12-10T08:59:16.846Z,6.83
2018-12-10T09:01:44.926Z,5.60
2018-12-10T09:04:13.115Z,6.67
2018-12-10T09:06:41.339Z,5.30
2018-12-10T09:09:09.519Z,6.75
2018-12-10T09:11:37.672Z,6.13
2018-12-10T09:14:06.164Z,6.80
2018-12-10T09:16:34.361Z,5.42
2018-12-10T09:19:02.497Z,6.78
2018-12-10T09:21:30.759Z,6.80
2018-12-10T09:23:58.871Z,5.92
2018-12-10T09:26:27.050Z,6.03
2018-12-10T09:28:55.401Z,6.90
2018-12-10T09:31:23.837Z,6.78
2018-12-10T09:33:52.155Z,6.33
2018-12-10T09:36:20.284Z,6.30
2018-12-10T09:38:48.470Z,6.58
2018-12-10T09:41:17.022Z,7.42
2018-12-10T09:43:45.257Z,6.42
2018-12-10T09:46:13.334Z,8.90
2018-12-10T09:48:41.601Z,6.97
2018-12-10T09:51:09.718Z,5.78
2018-12-10T09:53:37.823Z,5.72
2018-12-10T09:56:06.042Z,6.83
2018-12-10T09:58:34.286Z,7.20
2018-12-10T10:01:02.374Z,7.30
2018-12-10T10:03:30.600Z,7.90
2018-12-10T10:05:58.858Z,5.90
2018-12-10T10:08:27.460Z,9.48
2018-12-10T10:10:55.666Z,6.92
2018-12-10T10:13:23.834Z,6.20
2018-12-10T10:15:51.918Z,6.15
2018-12-10T10:18:20.194Z,8.40
2018-12-10T10:20:48.549Z,6.87
2018-12-10T10:23:16.728Z,7.03
2018-12-10T10:25:44.890Z,9.43
2018-12-10T10:28:13.067Z,6.50
2018-12-10T10:30:43.988Z,7.35
2018-12-10T10:33:11.349Z,5.50
2018-12-10T10:35:39.656Z,4.87
2018-12-10T10:38:08.018Z,6.05
2018-12-10T10:40:36.296Z,5.50
2018-12-10T10:43:04.537Z,5.55
2018-12-10T10:45:34.834Z,5.00
2018-12-10T10:48:02.878Z,3.87
2018-12-10T10:50:31.012Z,4.60
2018-12-10T10:52:59.239Z,4.83
2018-12-10T10:55:27.443Z,4.53
2018-12-10T10:57:55.587Z,2.85
2018-12-10T11:00:29.257Z,4.62
2018-12-10T11:03:02.963Z,3.00
2018-12-10T11:05:31.138Z,4.85
2018-12-10T11:07:59.394Z,3.60
2018-12-10T11:10:27.650Z,3.95
2018-12-10T11:12:56.890Z,5.67
2018-12-10T11:15:24.979Z,3.70
2018-12-10T11:17:53.307Z,5.08
2018-12-10T11:20:21.538Z,5.85
2018-12-10T11:22:49.929Z,4.75
2018-12-10T11:25:18.080Z,4.53
2018-12-10T11:27:46.407Z,6.15
2018-12-10T11:30:14.617Z,5.28
2018-12-10T11:32:42.827Z,4.90
2018-12-10T11:35:11.047Z,4.93
2018-12-10T11:37:39.322Z,5.12
2018-12-10T11:40:07.638Z,4.50
2018-12-10T11:42:35.802Z,4.58
2018-12-10T11:45:04.156Z,4.13
2018-12-10T11:47:32.348Z,4.42
2018-12-10T11:50:00.550Z,2.55
2018-12-10T11:52:28.745Z,2.62
2018-12-10T11:54:57.053Z,2.77
2018-12-10T11:57:25.225Z,3.08
2018-12-10T11:59:53.703Z,3.10
2018-12-10T12:02:29.633Z,4.53
2018-12-10T12:04:51.964Z,3.75
2018-12-10T12:07:20.383Z,3.40
2018-12-10T12:09:48.802Z,3.62
2018-12-10T12:12:17.035Z,5.37
2018-12-10T12:14:45.152Z,4.12
2018-12-10T12:17:13.394Z,3.35
2018-12-10T12:19:41.632Z,4.08
2018-12-10T12:22:09.830Z,5.03
2018-12-10T12:24:38.055Z,3.60
2018-12-10T12:27:07.331Z,3.87
2018-12-10T12:29:35.479Z,5.12
2018-12-10T12:32:03.722Z,4.50
2018-12-10T12:34:31.922Z,6.42
2018-12-10T12:37:00.150Z,7.43
2018-12-10T12:39:28.306Z,5.55
2018-12-10T12:41:56.546Z,6.05
2018-12-10T12:44:24.747Z,6.17
2018-12-10T12:46:52.814Z,8.50
2018-12-10T12:49:21.149Z,5.40
2018-12-10T12:51:49.242Z,6.40
2018-12-10T12:54:17.361Z,6.12
2018-12-10T12:56:45.537Z,5.62
2018-12-10T12:59:14.191Z,4.85
2018-12-10T13:01:49.198Z,5.35
2018-12-10T13:04:12.623Z,7.25
2018-12-10T13:06:40.980Z,5.83
2018-12-10T13:09:09.178Z,5.55
2018-12-10T13:11:37.332Z,6.92
2018-12-10T13:14:05.516Z,8.10
2018-12-10T13:16:33.679Z,6.75
2018-12-10T13:19:01.786Z,7.42
2018-12-10T13:21:30.051Z,8.03
2018-12-10T13:23:58.132Z,7.35
2018-12-10T13:26:26.237Z,6.90
2018-12-10T13:28:54.495Z,7.60
2018-12-10T13:31:22.923Z,9.40
2018-12-10T13:33:51.063Z,6.93
2018-12-10T13:36:19.287Z,8.20
2018-12-10T13:38:47.538Z,6.85
2018-12-10T13:41:15.755Z,7.72
2018-12-10T13:43:44.006Z,8.30
2018-12-10T13:46:12.379Z,5.42
2018-12-10T13:48:40.511Z,7.03
2018-12-10T13:51:08.619Z,6.43
2018-12-10T13:53:36.710Z,4.92
2018-12-10T13:56:04.878Z,6.00
2018-12-10T13:58:38.438Z,6.47
2018-12-10T14:01:06.730Z,5.53
2018-12-10T14:03:34.972Z,6.55
2018-12-10T14:06:03.191Z,6.92
2018-12-10T14:08:31.428Z,5.47
2018-12-10T14:10:59.722Z,7.17
2018-12-10T14:13:28.017Z,6.55
2018-12-10T14:15:56.106Z,6.33
2018-12-10T14:18:24.204Z,6.00
2018-12-10T14:20:52.439Z,6.40
2018-12-10T14:23:20.860Z,5.92
2018-12-10T14:25:49.096Z,8.07
2018-12-10T14:28:17.347Z,6.85
2018-12-10T14:30:45.650Z,7.53
2018-12-10T14:33:13.914Z,6.53
2018-12-10T14:35:42.190Z,6.03
2018-12-10T14:38:10.487Z,5.47
2018-12-10T14:40:38.663Z,6.22
2018-12-10T14:43:06.863Z,6.10
2018-12-10T14:45:35.126Z,5.70
2018-12-10T14:48:03.424Z,7.85
2018-12-10T14:50:31.732Z,6.40
2018-12-10T14:52:59.967Z,6.65
2018-12-10T14:55:28.231Z,6.22
2018-12-10T14:57:56.486Z,7.33
2018-12-10T15:00:26.739Z,7.35
2018-12-10T15:02:54.978Z,6.42
2018-12-10T15:05:23.059Z,5.42
2018-12-10T15:07:51.273Z,7.27
2018-12-10T15:10:23.232Z,7.37
2018-12-10T15:12:49.599Z,9.38
2018-12-10T15:15:17.785Z,6.92
2018-12-10T15:17:45.964Z,6.60
2018-12-10T15:20:14.823Z,6.10
2018-12-10T15:22:43.028Z,7.15
2018-12-10T15:25:11.466Z,6.08
2018-12-10T15:27:39.568Z,8.08
2018-12-10T15:30:11.354Z,6.60
2018-12-10T15:32:39.616Z,5.10
2018-12-10T15:35:07.982Z,7.25
2018-12-10T15:37:36.091Z,7.17
2018-12-10T15:40:05.330Z,7.27
2018-12-10T15:42:33.574Z,6.22
2018-12-10T15:45:01.888Z,7.10
2018-12-10T15:47:32.487Z,6.40
2018-12-10T15:50:00.900Z,6.37
2018-12-10T15:52:29.138Z,6.70
2018-12-10T15:54:57.251Z,5.97
2018-12-10T15:57:25.552Z,5.95
2018-12-10T15:59:53.846Z,5.20
2018-12-10T16:02:22.087Z,6.28
2018-12-10T16:04:50.401Z,6.43
2018-12-10T16:07:18.799Z,5.30
2018-12-10T16:09:47.103Z,5.72
2018-12-10T16:12:15.430Z,5.40
2018-12-10T16:14:43.766Z,4.35
2018-12-10T16:17:11.972Z,4.30
2018-12-10T16:19:40.245Z,4.00
2018-12-10T16:22:08.294Z,4.42
2018-12-10T16:24:36.794Z,4.25
2018-12-10T16:27:04.976Z,4.20
2018-12-10T16:29:33.127Z,4.73
2018-12-10T16:32:01.202Z,4.80
2018-12-10T16:34:29.500Z,4.60
2018-12-10T16:36:57.590Z,5.25
2018-12-10T16:39:25.843Z,5.67
2018-12-10T16:41:54.102Z,5.15
2018-12-10T16:44:22.262Z,4.80
2018-12-10T16:46:50.482Z,4.77
2018-12-10T16:49:18.755Z,5.10
2018-12-10T16:51:46.982Z,5.30
2018-12-10T16:54:15.095Z,5.50
2018-12-10T16:56:43.206Z,5.50
2018-12-10T16:59:11.542Z,5.67
2018-12-10T17:01:39.787Z,5.90
2018-12-10T17:04:08.079Z,6.05
2018-12-10T17:06:36.149Z,6.87
2018-12-10T17:09:08.763Z,7.80
2018-12-10T17:11:37.183Z,6.90
2018-12-10T17:14:05.771Z,7.55
2018-12-10T17:16:33.931Z,7.13
2018-12-10T17:19:02.174Z,6.50
2018-12-10T17:21:30.382Z,8.80
2018-12-10T17:23:58.547Z,9.00
2018-12-10T17:26:26.820Z,9.03
2018-12-10T17:28:54.962Z,10.13
2018-12-10T17:31:23.937Z,10.00
2018-12-10T17:33:52.571Z,9.15
2018-12-10T17:36:20.646Z,10.35
2018-12-10T17:38:48.826Z,10.60
2018-12-10T17:41:17.102Z,11.45
2018-12-10T17:43:45.258Z,8.40
2018-12-10T17:46:13.504Z,9.00
2018-12-10T17:48:41.778Z,9.93
2018-12-10T17:51:09.865Z,10.32
2018-12-10T17:53:38.151Z,9.90
2018-12-10T17:56:06.369Z,10.35
2018-12-10T17:58:34.706Z,11.10
2018-12-10T18:01:03.022Z,9.78
2018-12-10T18:03:31.261Z,10.93
2018-12-10T18:05:59.434Z,9.78
2018-12-10T18:08:27.675Z,10.50
2018-12-10T18:10:55.785Z,11.35
2018-12-10T18:13:24.296Z,11.65
2018-12-10T18:15:52.432Z,10.60
2018-12-10T18:18:20.550Z,10.50
2018-12-10T18:20:48.809Z,12.63
2018-12-10T18:23:17.246Z,12.95
2018-12-10T18:25:45.436Z,12.40
2018-12-10T18:28:13.787Z,11.08
2018-12-10T18:30:42.237Z,8.88
2018-12-10T18:33:10.687Z,9.70
2018-12-10T18:35:38.785Z,8.70
2018-12-10T18:38:07.241Z,10.95
2018-12-10T18:40:35.584Z,10.35
2018-12-10T18:43:03.707Z,12.03
2018-12-10T18:45:31.809Z,14.35
2018-12-10T18:47:59.932Z,13.95
2018-12-10T18:50:28.180Z,14.60
2018-12-10T18:52:56.347Z,14.55
2018-12-10T18:55:24.607Z,13.93
2018-12-10T18:57:52.841Z,11.53
2018-12-10T19:00:21.007Z,13.50
2018-12-10T19:02:49.174Z,12.87
2018-12-10T19:05:17.526Z,16.15
2018-12-10T19:07:45.612Z,12.13
2018-12-10T19:10:13.964Z,12.53
2018-12-10T19:12:42.342Z,13.03
2018-12-10T19:15:10.899Z,10.13
2018-12-10T19:17:39.228Z,11.90
2018-12-10T19:20:13.446Z,11.55
2018-12-10T19:22:38.419Z,13.58
2018-12-10T19:25:06.665Z,11.93
2018-12-10T19:27:34.902Z,14.13
2018-12-10T19:30:03.353Z,13.32
2018-12-10T19:32:31.587Z,12.83
2018-12-10T19:34:59.924Z,12.88
2018-12-10T19:40:03.063Z,15.50
2018-12-10T19:42:31.193Z,15.35
2018-12-10T19:44:59.404Z,13.38
2018-12-10T19:47:27.651Z,17.27
2018-12-10T19:49:55.731Z,15.30
2018-12-10T19:52:24.043Z,12.07
2018-12-10T19:54:52.223Z,11.73
2018-12-10T19:57:20.467Z,11.18
2018-12-10T19:59:48.751Z,13.13
2018-12-10T20:02:17.182Z,11.15
2018-12-10T20:04:45.604Z,12.90
2018-12-10T20:07:16.250Z,11.87
2018-12-10T20:09:44.435Z,10.58
2018-12-10T20:12:12.890Z,11.27
2018-12-10T20:14:41.023Z,12.68
2018-12-10T20:17:09.124Z,14.05
2018-12-10T20:19:37.274Z,10.68
2018-12-10T20:22:06.643Z,12.37
2018-12-10T20:24:35.050Z,12.03
2018-12-10T20:27:03.333Z,13.60
2018-12-10T20:29:31.529Z,13.58
2018-12-10T20:31:59.791Z,11.97
2018-12-10T20:34:28.082Z,9.55
2018-12-10T20:36:56.581Z,12.70
2018-12-10T20:39:24.775Z,13.80
2018-12-10T20:41:52.966Z,9.03
2018-12-10T20:44:21.322Z,11.93
2018-12-10T20:46:49.647Z,10.80
2018-12-10T20:49:17.803Z,12.53
2018-12-10T20:51:46.036Z,12.43
2018-12-10T20:54:14.138Z,14.65
2018-12-10T20:56:42.315Z,11.20
2018-12-10T20:59:10.503Z,13.00
2018-12-10T21:01:38.703Z,8.85
2018-12-10T21:04:06.978Z,13.08
2018-12-10T21:06:37.901Z,11.63
2018-12-10T21:09:08.575Z,11.10
2018-12-10T21:11:36.937Z,10.75
2018-12-10T21:14:05.228Z,11.88
2018-12-10T21:16:33.649Z,11.30
2018-12-10T21:19:01.840Z,12.85
2018-12-10T21:21:30.114Z,13.10
2018-12-10T21:23:58.235Z,11.85
2018-12-10T21:26:26.450Z,11.57
2018-12-10T21:28:54.637Z,10.00
2018-12-10T21:31:22.874Z,11.53
2018-12-10T21:33:51.079Z,11.70
2018-12-10T21:36:19.225Z,11.43
2018-12-10T21:38:47.454Z,10.58
2018-12-10T21:41:15.678Z,11.93
2018-12-10T21:43:44.042Z,12.28
2018-12-10T21:46:12.151Z,12.30
2018-12-10T21:48:40.367Z,12.03
2018-12-10T21:51:08.587Z,14.95
2018-12-10T21:53:36.857Z,13.13
2018-12-10T21:56:05.951Z,14.17
2018-12-10T21:59:23.611Z,12.80
2018-12-10T22:01:51.762Z,13.65
2018-12-10T22:04:20.018Z,11.68
2018-12-10T22:06:48.239Z,12.10
2018-12-10T22:09:16.464Z,14.47
2018-12-10T22:11:44.650Z,13.22
2018-12-10T22:14:12.801Z,11.78
2018-12-10T22:16:41.079Z,14.47
2018-12-10T22:19:09.311Z,13.58
2018-12-10T22:21:37.532Z,14.05
2018-12-10T22:24:05.882Z,12.13
2018-12-10T22:26:33.982Z,11.38
2018-12-10T22:29:02.326Z,10.55
2018-12-10T22:31:30.588Z,10.72
2018-12-10T22:33:58.691Z,11.35
2018-12-10T22:36:26.855Z,12.13
2018-12-10T22:38:55.143Z,11.35
2018-12-10T22:41:23.332Z,10.10
2018-12-10T22:43:51.503Z,10.50
2018-12-10T22:46:19.586Z,11.57
2018-12-10T22:48:47.816Z,11.12
2018-12-10T22:51:16.036Z,10.93
2018-12-10T22:53:44.135Z,12.70
2018-12-10T22:56:12.551Z,11.38
2018-12-10T22:58:40.819Z,10.15
2018-12-10T23:01:09.078Z,10.40
2018-12-10T23:03:37.249Z,8.28
2018-12-10T23:06:05.726Z,9.65
2018-12-10T23:08:33.997Z,9.83
2018-12-10T23:11:02.212Z,11.03
2018-12-10T23:13:30.466Z,9.08
2018-12-10T23:15:58.755Z,9.35
2018-12-10T23:18:27.095Z,10.25
2018-12-10T23:20:55.355Z,10.32
2018-12-10T23:23:23.578Z,11.03
2018-12-10T23:25:51.795Z,9.00
2018-12-10T23:28:19.890Z,9.23
2018-12-10T23:30:48.055Z,10.53
2018-12-10T23:33:16.510Z,9.45
2018-12-10T23:35:44.583Z,8.53
2018-12-10T23:38:12.691Z,9.73
2018-12-10T23:40:40.806Z,8.45
2018-12-10T23:43:14.366Z,10.33
2018-12-10T23:45:42.493Z,11.88
2018-12-10T23:48:10.656Z,9.70
2018-12-10T23:50:38.898Z,10.72
2018-12-10T23:53:07.034Z,10.32
2018-12-10T23:55:35.159Z,9.15
2018-12-10T23:58:03.252Z,8.77
